createdAt,value
2023-04-19T00:02:36.200Z,1025.42
2023-04-19T00:17:37.486Z,1025.42
2023-04-19T00:32:38.295Z,1025.29
2023-04-19T00:47:38.864Z,1025.23
2023-04-19T01:02:39.033Z,1025.27
2023-04-19T01:17:39.505Z,1025.22
2023-04-19T01:32:39.915Z,1025.13
2023-04-19T01:47:40.201Z,1025.08
2023-04-19T02:02:40.996Z,1024.87
2023-04-19T02:17:41.244Z,1024.79
2023-04-19T02:32:41.507Z,1024.67
2023-04-19T02:47:42.175Z,1024.47
2023-04-19T03:02:43.237Z,1024.33
2023-04-19T03:17:45.732Z,1024.15
2023-04-19T03:32:47.059Z,1023.99
2023-04-19T03:47:48.103Z,1023.93
2023-04-19T04:02:49.033Z,1023.83
2023-04-19T04:17:49.484Z,1023.87
2023-04-19T04:32:51.159Z,1023.81
2023-04-19T04:47:51.792Z,1023.69
2023-04-19T05:02:51.966Z,1023.74
2023-04-19T05:17:52.099Z,1023.69
2023-04-19T05:32:52.371Z,1023.62
2023-04-19T05:47:52.536Z,1023.48
2023-04-19T06:02:53.606Z,1023.44
2023-04-19T06:17:54.264Z,1023.40
2023-04-19T06:32:54.949Z,1023.44
2023-04-19T06:47:56.278Z,1023.44
2023-04-19T07:02:57.616Z,1023.20
2023-04-19T07:17:58.582Z,1023.02
2023-04-19T07:32:59.153Z,1022.84
2023-04-19T07:47:59.678Z,1022.59
2023-04-19T08:03:01.029Z,1022.60
2023-04-19T08:18:02.002Z,1022.40
2023-04-19T08:33:02.917Z,1022.40
2023-04-19T08:48:03.464Z,1022.23
2023-04-19T09:03:04.090Z,1022.18
2023-04-19T09:18:04.927Z,1021.90
2023-04-19T09:33:05.566Z,1021.82
2023-04-19T09:48:05.989Z,1021.58
2023-04-19T10:03:07.059Z,1021.43
2023-04-19T10:18:07.619Z,1021.23
2023-04-19T10:33:08.812Z,1021.31
2023-04-19T10:48:09.884Z,1021.08
2023-04-19T11:03:10.777Z,1021.01
2023-04-19T11:18:13.376Z,1020.99
2023-04-19T11:33:13.953Z,1020.80
2023-04-19T11:48:14.080Z,1020.50
2023-04-19T12:03:14.967Z,1020.49
2023-04-19T12:18:15.425Z,1020.26
2023-04-19T12:33:15.834Z,1020.02
2023-04-19T12:48:16.106Z,1019.64
2023-04-19T13:03:16.901Z,1019.55
2023-04-19T13:18:17.410Z,1019.26
2023-04-19T13:33:17.451Z,1019.21
2023-04-19T13:48:17.564Z,1019.03
2023-04-19T14:03:17.874Z,1018.96
2023-04-19T14:18:18.186Z,1018.78
2023-04-19T14:33:19.047Z,1018.61
2023-04-19T14:48:22.207Z,1018.61
2023-04-19T15:03:22.970Z,1019.30
2023-04-19T15:18:23.518Z,1019.33
2023-04-19T15:33:24.483Z,1019.28
2023-04-19T15:48:24.773Z,1019.00
2023-04-19T16:03:25.181Z,1018.65
2023-04-19T16:18:25.397Z,1018.49
2023-04-19T16:33:26.215Z,1018.29
2023-04-19T16:48:26.890Z,1018.19
2023-04-19T17:03:27.265Z,1018.10
2023-04-19T17:18:27.312Z,1018.12
2023-04-19T17:33:27.584Z,1018.24
2023-04-19T17:48:27.715Z,1018.24
2023-04-19T18:03:28.227Z,1018.27
2023-04-19T18:18:28.615Z,1018.39
2023-04-19T18:33:29.519Z,1018.48
2023-04-19T18:48:29.967Z,1018.48
2023-04-19T19:03:53.973Z,1018.59
2023-04-19T19:18:36.166Z,1018.66
2023-04-19T19:33:39.902Z,1018.76
2023-04-19T19:48:42.721Z,1018.70
2023-04-19T20:03:43.769Z,1018.86
2023-04-19T20:18:44.715Z,1018.84
2023-04-19T20:33:45.378Z,1018.91
2023-04-19T20:48:46.039Z,1018.81
2023-04-19T21:03:46.780Z,1018.85
2023-04-19T21:18:47.215Z,1018.90
2023-04-19T21:33:47.986Z,1018.81
2023-04-19T21:48:48.749Z,1018.82
2023-04-19T22:03:50.634Z,1018.98
2023-04-19T22:18:51.955Z,1018.79
2023-04-19T22:33:52.597Z,1018.83
2023-04-19T22:48:52.600Z,1018.83
2023-04-19T23:03:53.871Z,1018.67
2023-04-19T23:19:12.529Z,1018.64
2023-04-19T23:34:13.169Z,1018.53
2023-04-19T23:49:15.004Z,1018.37
